Oxford, NC

6:20 PM EDT on August 31, 2016 (GMT -0400)
Henderson-Oxford | | Change Station

Elev 528 ft 36.36 °N, 78.53 °W | Updated 20 minutes ago

Scattered Clouds
Scattered Clouds
87 °F
Feels Like 88 °F
N
5
Wind Variable Wind from SSE

Today
High -- | Low -- °F
--% Chance of Precip.
Yesterday
High -- | Low -- °F
Precip. -- in
Pressure 29.91 in
Visibility 10.0 miles
Clouds Scattered Clouds 6000 ft
Heat Index 88 °F
Dew Point 65 °F
Humidity 48%
Rainfall 0.00 in
Snow Depth Not available.
6:45 AM 7:42 PM
Waning Crescent, 0% visible
METAR KHNZ 312200Z AUTO 15004KT 10SM SCT060 30/18 A2991 RMK AO2 T03040183
Pressure 29.91 in
Visibility 10.0 miles
Clouds Scattered Clouds 6000 ft
Heat Index 88 °F
Dew Point 65 °F
Humidity 48%
Rainfall 0.00 in
Snow Depth Not available.
6:45 AM 7:42 PM
Waning Crescent, 0% visible
METAR KHNZ 312200Z AUTO 15004KT 10SM SCT060 30/18 A2991 RMK AO2 T03040183

10-Day Weather Forecast

Almanac

Astronomy

Aug. 31, 2016 Rise Set
Actual Time
Civil Twilight
Nautical Twilight
Astronomical Twilight
Moon
Length of Visible Light
Length of Day
Tomorrow will be .
, % of the Moon is Illuminated

Today's Extremes

State Highs State Lows

Community

WunderPhotos

Upload Photos

1,936,200 photos uploaded!

WunderBlog® & News

Nearby

Air Quality

  Air Quality AQ Index Pollutant
Not available.

Snow Depth

Station Depth Elevation

Earthquake Activity

City Distance Mag. Time & Date
Minimum magnitude displayed is 2.5.

Coastal Water Temperatures

Place Temperature

Stations

Nearby Weather Stations

Station Location Temp. Windchill Dew Point Humidity Wind Precip. Elev Updated Type
                   

Watches & Warnings

There are currently no watches in effect.